createdAt,value
2022-10-17T00:01:56.528Z,9.02
2022-10-17T00:04:26.009Z,9.55
2022-10-17T00:06:55.552Z,8.80
2022-10-17T00:09:25.010Z,9.50
2022-10-17T00:11:57.022Z,8.98
2022-10-17T00:14:26.497Z,9.38
2022-10-17T00:16:55.947Z,9.18
2022-10-17T00:19:25.439Z,8.50
2022-10-17T00:21:54.896Z,8.60
2022-10-17T00:24:24.426Z,8.57
2022-10-17T00:26:53.900Z,8.63
2022-10-17T00:29:25.982Z,8.60
2022-10-17T00:31:57.510Z,8.20
2022-10-17T00:34:27.138Z,8.80
2022-10-17T00:36:56.572Z,7.47
2022-10-17T00:39:26.109Z,7.70
2022-10-17T00:41:55.562Z,7.75
2022-10-17T00:44:55.094Z,8.13
2022-10-17T00:47:27.124Z,8.18
2022-10-17T00:49:56.643Z,7.68
2022-10-17T00:52:27.668Z,7.57
2022-10-17T00:54:58.541Z,7.07
2022-10-17T00:57:28.046Z,7.13
2022-10-17T00:59:57.699Z,6.90
2022-10-17T01:02:30.003Z,7.53
2022-10-17T01:04:59.607Z,7.10
2022-10-17T01:07:33.167Z,7.18
2022-10-17T01:10:06.484Z,7.38
2022-10-17T01:12:40.678Z,7.13
2022-10-17T01:15:14.937Z,7.10
2022-10-17T01:17:55.183Z,7.25
2022-10-17T01:20:46.106Z,7.13
2022-10-17T01:23:27.745Z,6.78
2022-10-17T01:25:59.092Z,7.18
2022-10-17T01:28:50.116Z,6.75
2022-10-17T01:31:22.358Z,6.78
2022-10-17T01:33:57.552Z,7.10
2022-10-17T01:36:34.335Z,7.65
2022-10-17T01:39:06.104Z,7.20
2022-10-17T01:41:39.169Z,7.65
2022-10-17T01:44:11.900Z,7.68
2022-10-17T01:46:44.320Z,7.57
2022-10-17T01:49:13.936Z,7.20
2022-10-17T01:51:44.875Z,8.07
2022-10-17T01:54:15.888Z,7.25
2022-10-17T01:59:15.489Z,7.30
2022-10-17T02:01:49.925Z,7.97
2022-10-17T02:04:19.474Z,7.47
2022-10-17T02:06:48.984Z,6.63
2022-10-17T02:09:22.756Z,6.82
2022-10-17T02:11:57.497Z,7.38
2022-10-17T02:14:31.292Z,5.90
2022-10-17T02:17:07.400Z,6.13
2022-10-17T02:19:47.187Z,6.03
2022-10-17T02:22:24.303Z,6.28
2022-10-17T02:24:55.780Z,5.75
2022-10-17T02:27:30.324Z,5.80
2022-10-17T02:30:01.832Z,5.65
2022-10-17T02:32:37.107Z,5.38
2022-10-17T02:35:06.942Z,6.00
2022-10-17T02:37:36.380Z,6.00
2022-10-17T02:40:06.143Z,5.57
2022-10-17T02:42:35.613Z,6.25
2022-10-17T02:45:05.070Z,6.30
2022-10-17T02:47:38.850Z,6.00
2022-10-17T02:50:09.387Z,5.72
2022-10-17T02:52:40.228Z,6.00
2022-10-17T02:55:12.516Z,6.68
2022-10-17T02:57:42.653Z,6.70
2022-10-17T03:00:14.159Z,7.07
2022-10-17T03:02:47.061Z,6.95
2022-10-17T03:05:20.732Z,7.28
2022-10-17T03:07:50.185Z,6.95
2022-10-17T03:10:19.765Z,6.82
2022-10-17T03:12:49.249Z,6.60
2022-10-17T03:15:18.955Z,6.38
2022-10-17T03:17:50.994Z,6.07
2022-10-17T03:20:20.472Z,6.53
2022-10-17T03:22:49.984Z,5.47
2022-10-17T03:25:19.480Z,5.75
2022-10-17T03:27:48.927Z,5.85
2022-10-17T03:30:18.434Z,5.90
2022-10-17T03:32:48.004Z,5.70
2022-10-17T03:35:20.245Z,6.30
2022-10-17T03:37:49.720Z,6.00
2022-10-17T03:40:19.320Z,6.25
2022-10-17T03:42:48.839Z,6.50
2022-10-17T03:45:18.680Z,6.32
2022-10-17T03:47:48.138Z,6.43
2022-10-17T03:50:20.240Z,6.55
2022-10-17T03:52:50.032Z,6.05
2022-10-17T03:55:19.706Z,5.85
2022-10-17T03:57:49.167Z,5.57
2022-10-17T04:00:18.836Z,5.78
2022-10-17T04:02:48.334Z,6.43
2022-10-17T04:05:20.452Z,6.13
2022-10-17T04:07:49.882Z,6.20
2022-10-17T04:10:19.369Z,6.45
2022-10-17T04:12:48.839Z,7.50
2022-10-17T04:15:18.425Z,6.60
2022-10-17T04:17:48.619Z,6.72
2022-10-17T04:20:20.792Z,7.10
2022-10-17T04:22:50.225Z,6.28
2022-10-17T04:25:19.871Z,6.80
2022-10-17T04:27:49.353Z,6.53
2022-10-17T04:30:19.131Z,6.80
2022-10-17T04:32:48.643Z,7.57
2022-10-17T04:35:20.722Z,7.85
2022-10-17T04:37:50.189Z,7.65
2022-10-17T04:40:19.872Z,7.32
2022-10-17T04:42:49.343Z,7.65
2022-10-17T04:45:18.973Z,7.20
2022-10-17T04:47:48.448Z,7.00
2022-10-17T04:50:20.751Z,7.25
2022-10-17T04:52:50.180Z,8.07
2022-10-17T04:55:19.718Z,7.43
2022-10-17T04:57:49.186Z,7.82
2022-10-17T05:00:18.877Z,7.68
2022-10-17T05:02:48.409Z,9.57
2022-10-17T05:05:20.548Z,7.95
2022-10-17T05:07:49.993Z,8.45
2022-10-17T05:10:19.478Z,8.48
2022-10-17T05:12:49.609Z,8.80
2022-10-17T05:15:19.267Z,9.07
2022-10-17T05:17:48.713Z,8.43
2022-10-17T05:20:20.758Z,8.20
2022-10-17T05:22:50.209Z,8.13
2022-10-17T05:25:19.694Z,8.80
2022-10-17T05:27:49.229Z,8.75
2022-10-17T05:30:18.792Z,8.70
2022-10-17T05:32:48.302Z,8.43
2022-10-17T05:35:20.445Z,8.00
2022-10-17T05:37:49.922Z,8.57
2022-10-17T05:40:19.490Z,7.63
2022-10-17T05:42:49.700Z,7.55
2022-10-17T05:45:19.235Z,8.90
2022-10-17T05:47:48.667Z,8.35
2022-10-17T05:50:22.157Z,8.20
2022-10-17T05:52:51.597Z,8.13
2022-10-17T05:55:21.473Z,8.13
2022-10-17T05:57:52.651Z,7.57
2022-10-17T06:00:22.461Z,7.95
2022-10-17T06:02:51.945Z,7.38
2022-10-17T06:05:24.046Z,7.47
2022-10-17T06:07:56.986Z,7.80
2022-10-17T06:10:29.194Z,8.52
2022-10-17T06:12:58.911Z,8.60
2022-10-17T06:15:28.365Z,8.02
2022-10-17T06:17:57.846Z,8.07
2022-10-17T06:20:29.937Z,7.50
2022-10-17T06:22:59.384Z,8.05
2022-10-17T06:25:29.271Z,8.25
2022-10-17T06:27:59.312Z,9.43
2022-10-17T06:30:28.977Z,8.45
2022-10-17T06:32:58.463Z,8.27
2022-10-17T06:35:30.508Z,9.63
2022-10-17T06:37:59.998Z,8.25
2022-10-17T06:40:30.297Z,7.30
2022-10-17T06:43:00.278Z,7.80
2022-10-17T06:45:29.756Z,8.25
2022-10-17T06:47:59.225Z,7.20
2022-10-17T06:50:31.252Z,7.50
2022-10-17T06:53:00.741Z,6.65
2022-10-17T06:55:30.198Z,7.90
2022-10-17T06:57:59.671Z,7.47
2022-10-17T07:00:29.412Z,7.13
2022-10-17T07:02:58.878Z,7.88
2022-10-17T07:05:30.915Z,7.85
2022-10-17T07:08:00.390Z,8.80
2022-10-17T07:10:29.860Z,8.07
2022-10-17T07:12:59.357Z,8.85
2022-10-17T07:15:28.925Z,8.50
2022-10-17T07:17:58.394Z,8.95
2022-10-17T07:20:27.958Z,10.10
2022-10-17T07:23:00.043Z,8.35
2022-10-17T07:25:29.858Z,8.82
2022-10-17T07:27:59.376Z,8.13
2022-10-17T07:30:29.069Z,8.48
2022-10-17T07:32:58.554Z,7.90
2022-10-17T07:35:28.015Z,7.97
2022-10-17T07:38:00.080Z,8.10
2022-10-17T07:40:29.516Z,7.82
2022-10-17T07:42:59.069Z,8.80
2022-10-17T07:45:28.507Z,8.27
2022-10-17T07:47:59.174Z,8.70
2022-10-17T07:50:29.247Z,8.57
2022-10-17T07:53:27.286Z,8.35
2022-10-17T07:55:56.715Z,8.68
2022-10-17T07:58:26.500Z,8.65
2022-10-17T08:00:56.055Z,9.07
2022-10-17T08:03:25.731Z,9.23
2022-10-17T08:05:55.188Z,9.88
2022-10-17T08:08:27.274Z,10.07
2022-10-17T08:10:58.657Z,9.80
2022-10-17T08:13:28.164Z,9.25
2022-10-17T08:15:57.650Z,9.55
2022-10-17T08:18:27.108Z,10.02
2022-10-17T08:20:59.412Z,10.20
2022-10-17T08:23:32.443Z,9.75
2022-10-17T08:26:02.585Z,10.13
2022-10-17T08:28:32.150Z,10.13
2022-10-17T08:31:08.518Z,9.23
2022-10-17T08:33:37.978Z,9.93
2022-10-17T08:36:08.068Z,10.27
2022-10-17T08:38:43.691Z,10.43
2022-10-17T08:41:17.983Z,10.18
2022-10-17T08:44:02.061Z,11.52
2022-10-17T08:46:32.841Z,11.20
2022-10-17T08:49:02.377Z,11.23
2022-10-17T08:51:33.558Z,11.18
2022-10-17T08:54:09.198Z,11.02
2022-10-17T08:56:48.555Z,10.57
2022-10-17T08:59:20.602Z,10.17
2022-10-17T09:01:52.407Z,9.32
2022-10-17T09:04:41.264Z,9.23
2022-10-17T09:07:13.391Z,9.32
2022-10-17T09:09:50.453Z,8.65
2022-10-17T09:12:20.738Z,8.80
2022-10-17T09:15:11.212Z,9.23
2022-10-17T09:17:45.626Z,9.25
2022-10-17T09:20:16.774Z,9.32
2022-10-17T09:22:48.277Z,9.13
2022-10-17T09:25:21.682Z,8.48
2022-10-17T09:27:52.662Z,8.05
2022-10-17T09:33:35.118Z,8.73
2022-10-17T09:36:07.698Z,8.57
2022-10-17T09:38:41.148Z,8.90
2022-10-17T09:41:43.809Z,9.02
2022-10-17T09:44:19.351Z,9.35
2022-10-17T09:47:02.392Z,8.75
2022-10-17T09:49:34.526Z,8.68
2022-10-17T09:52:04.211Z,8.90
2022-10-17T09:54:40.671Z,8.60
2022-10-17T09:57:13.523Z,8.60
2022-10-17T09:59:45.007Z,7.90
2022-10-17T10:02:19.915Z,7.38
2022-10-17T10:05:18.963Z,7.97
2022-10-17T10:08:03.784Z,7.07
2022-10-17T10:10:33.555Z,6.70
2022-10-17T10:13:17.954Z,6.78
2022-10-17T10:15:47.929Z,6.82
2022-10-17T10:18:32.295Z,6.97
2022-10-17T10:21:10.652Z,5.97
2022-10-17T10:23:41.930Z,6.53
2022-10-17T10:26:33.006Z,6.88
2022-10-17T10:29:07.038Z,7.00
2022-10-17T10:31:38.278Z,6.45
2022-10-17T10:34:18.075Z,6.60
2022-10-17T10:36:49.328Z,6.15
2022-10-17T10:39:35.229Z,5.78
2022-10-17T10:42:05.585Z,5.43
2022-10-17T10:44:37.729Z,5.10
2022-10-17T10:47:26.280Z,5.22
2022-10-17T10:49:56.921Z,4.93
2022-10-17T10:52:32.133Z,4.80
2022-10-17T10:55:06.616Z,4.22
2022-10-17T10:57:36.595Z,4.47
2022-10-17T11:00:12.843Z,4.00
2022-10-17T11:02:45.809Z,3.60
2022-10-17T11:05:17.985Z,3.38
2022-10-17T11:07:52.479Z,3.47
2022-10-17T11:10:24.901Z,2.97
2022-10-17T11:12:56.271Z,3.22
2022-10-17T11:15:31.047Z,2.90
2022-10-17T11:18:02.075Z,3.08
2022-10-17T11:20:39.468Z,3.03
2022-10-17T11:23:20.739Z,3.35
2022-10-17T11:25:51.187Z,2.97
2022-10-17T11:28:21.634Z,2.88
2022-10-17T11:30:55.432Z,3.10
2022-10-17T11:33:30.505Z,3.30
2022-10-17T11:36:04.644Z,2.92
2022-10-17T11:38:39.883Z,3.10
2022-10-17T11:41:09.353Z,2.80
2022-10-17T11:43:40.752Z,3.35
2022-10-17T11:46:17.103Z,3.03
2022-10-17T11:48:48.303Z,3.22
2022-10-17T11:54:09.823Z,3.20
2022-10-17T11:56:43.560Z,3.15
2022-10-17T11:59:47.457Z,2.92
2022-10-17T12:02:21.357Z,2.92
2022-10-17T12:04:56.552Z,2.70
2022-10-17T12:07:30.191Z,2.95
2022-10-17T12:10:02.212Z,2.75
2022-10-17T12:12:33.263Z,2.85
2022-10-17T12:15:29.984Z,2.90
2022-10-17T12:18:03.025Z,3.10
2022-10-17T12:20:34.260Z,2.65
2022-10-17T12:23:26.442Z,2.67
2022-10-17T12:26:01.135Z,2.60
2022-10-17T12:28:33.939Z,3.00
2022-10-17T12:31:05.791Z,2.80
2022-10-17T12:33:40.229Z,3.00
2022-10-17T12:36:51.166Z,6.10
2022-10-17T12:39:47.017Z,2.85
